createdAt,value
2018-04-25T00:01:54.179Z,90.10
2018-04-25T00:04:21.630Z,90.00
2018-04-25T00:06:49.109Z,89.80
2018-04-25T00:09:17.331Z,90.20
2018-04-25T00:11:44.778Z,90.20
2018-04-25T00:14:12.255Z,89.80
2018-04-25T00:16:39.703Z,89.70
2018-04-25T00:19:07.158Z,90.20
2018-04-25T00:21:34.631Z,89.70
2018-04-25T00:24:02.079Z,89.60
2018-04-25T00:26:29.538Z,89.10
2018-04-25T00:28:57.006Z,88.80
2018-04-25T00:31:24.450Z,88.40
2018-04-25T00:33:51.902Z,89.10
2018-04-25T00:36:19.347Z,89.00
2018-04-25T00:38:46.798Z,88.80
2018-04-25T00:41:14.266Z,89.10
2018-04-25T00:43:41.719Z,89.60
2018-04-25T00:46:09.194Z,90.30
2018-04-25T00:48:36.662Z,90.00
2018-04-25T00:51:04.135Z,89.30
2018-04-25T00:53:32.343Z,88.60
2018-04-25T00:55:59.830Z,88.60
2018-04-25T00:58:27.275Z,88.30
2018-04-25T01:00:54.745Z,88.90
2018-04-25T01:03:22.199Z,88.40
2018-04-25T01:05:49.663Z,87.80
2018-04-25T01:08:17.139Z,88.50
2018-04-25T01:10:44.602Z,86.90
2018-04-25T01:13:12.823Z,87.80
2018-04-25T01:15:40.274Z,87.70
2018-04-25T01:18:07.763Z,85.70
2018-04-25T01:20:35.219Z,85.80
2018-04-25T01:23:08.239Z,85.70
2018-04-25T01:25:39.087Z,84.50
2018-04-25T01:28:06.564Z,84.50
2018-04-25T01:30:39.855Z,84.70
2018-04-25T01:33:07.314Z,85.80
2018-04-25T01:35:34.786Z,84.10
2018-04-25T01:38:03.178Z,84.40
2018-04-25T01:40:30.614Z,84.10
2018-04-25T01:43:06.987Z,84.40
2018-04-25T01:45:47.437Z,83.80
2018-04-25T01:51:27.330Z,83.70
2018-04-25T01:54:06.739Z,83.90
2018-04-25T01:56:46.086Z,84.40
2018-04-25T01:59:25.372Z,83.10
2018-04-25T02:01:52.327Z,84.00
2018-04-25T02:04:19.771Z,83.50
2018-04-25T02:06:47.247Z,84.30
2018-04-25T02:09:14.710Z,83.50
2018-04-25T02:11:42.162Z,84.10
2018-04-25T02:14:09.608Z,84.40
2018-04-25T02:16:37.070Z,83.90
2018-04-25T02:19:05.286Z,83.80
2018-04-25T02:21:32.736Z,83.80
2018-04-25T02:24:00.250Z,83.60
2018-04-25T02:26:27.682Z,83.00
2018-04-25T02:28:55.914Z,83.90
2018-04-25T02:31:23.364Z,83.80
2018-04-25T02:33:50.867Z,83.40
2018-04-25T02:36:18.324Z,83.40
2018-04-25T02:38:46.553Z,83.50
2018-04-25T02:41:14.040Z,83.50
2018-04-25T02:43:41.477Z,85.40
2018-04-25T02:46:08.920Z,82.90
2018-04-25T02:48:36.395Z,82.30
2018-04-25T02:51:03.847Z,82.90
2018-04-25T02:53:31.303Z,82.50
2018-04-25T02:55:58.751Z,83.10
2018-04-25T02:58:26.211Z,84.10
2018-04-25T03:00:53.679Z,82.60
2018-04-25T03:03:21.128Z,83.00
2018-04-25T03:05:48.583Z,83.70
2018-04-25T03:08:16.074Z,83.70
2018-04-25T03:10:43.578Z,83.50
2018-04-25T03:13:11.023Z,83.70
2018-04-25T03:15:38.502Z,84.10
2018-04-25T03:18:05.951Z,83.60
2018-04-25T03:20:33.419Z,84.00
2018-04-25T03:23:00.874Z,85.00
2018-04-25T03:25:28.354Z,84.80
2018-04-25T03:27:56.567Z,84.90
2018-04-25T03:30:24.015Z,84.80
2018-04-25T03:32:51.467Z,84.40
2018-04-25T03:35:18.934Z,84.50
2018-04-25T03:37:46.375Z,84.80
2018-04-25T03:40:13.839Z,84.50
2018-04-25T03:42:41.314Z,85.20
2018-04-25T03:45:08.768Z,85.50
2018-04-25T03:47:36.226Z,85.50
2018-04-25T03:50:04.438Z,86.10
2018-04-25T03:52:31.915Z,86.10
2018-04-25T03:55:00.142Z,86.30
2018-04-25T03:57:27.603Z,86.30
2018-04-25T03:59:55.074Z,86.40
2018-04-25T04:02:22.552Z,86.00
2018-04-25T04:04:50.790Z,86.00
2018-04-25T04:07:18.269Z,85.90
2018-04-25T04:09:45.746Z,86.40
2018-04-25T04:12:13.959Z,86.50
2018-04-25T04:14:41.439Z,86.50
2018-04-25T04:17:08.894Z,87.10
2018-04-25T04:19:36.356Z,86.90
2018-04-25T04:22:03.871Z,87.00
2018-04-25T04:24:31.347Z,87.00
2018-04-25T04:26:58.786Z,86.90
2018-04-25T04:29:26.259Z,87.10
2018-04-25T04:31:53.746Z,87.30
2018-04-25T04:34:21.199Z,87.80
2018-04-25T04:36:48.703Z,87.60
2018-04-25T04:39:16.175Z,88.10
2018-04-25T04:41:43.641Z,88.30
2018-04-25T04:44:11.100Z,88.80
2018-04-25T04:46:38.582Z,88.80
2018-04-25T04:49:06.038Z,88.60
2018-04-25T04:51:33.487Z,88.50
2018-04-25T04:54:00.965Z,89.20
2018-04-25T04:56:29.186Z,88.60
2018-04-25T04:58:56.634Z,88.60
2018-04-25T05:01:24.146Z,88.30
2018-04-25T05:03:51.595Z,88.60
2018-04-25T05:06:19.039Z,88.80
2018-04-25T05:08:46.652Z,88.40
2018-04-25T05:11:14.766Z,88.20
2018-04-25T05:13:42.220Z,88.10
2018-04-25T05:16:09.670Z,88.30
2018-04-25T05:18:37.150Z,88.20
2018-04-25T05:21:04.618Z,87.70
2018-04-25T05:23:32.862Z,88.20
2018-04-25T05:26:00.311Z,87.50
2018-04-25T05:28:27.790Z,87.50
2018-04-25T05:30:55.240Z,87.80
2018-04-25T05:33:22.702Z,88.10
2018-04-25T05:35:50.172Z,88.00
2018-04-25T05:38:18.418Z,88.60
2018-04-25T05:40:45.865Z,88.10
2018-04-25T05:43:13.327Z,89.50
2018-04-25T05:45:40.779Z,89.90
2018-04-25T05:48:08.241Z,89.80
2018-04-25T05:50:35.711Z,90.20
2018-04-25T05:53:03.184Z,90.80
2018-04-25T05:55:30.683Z,91.50
2018-04-25T05:57:58.190Z,91.40
2018-04-25T06:00:25.589Z,91.60
2018-04-25T06:02:53.067Z,91.40
2018-04-25T06:05:20.510Z,91.50
2018-04-25T06:07:47.982Z,91.80
2018-04-25T06:10:15.462Z,91.60
2018-04-25T06:12:42.927Z,92.40
2018-04-25T06:15:10.382Z,92.70
2018-04-25T06:17:37.875Z,93.10
2018-04-25T06:20:05.339Z,94.10
2018-04-25T06:22:32.789Z,94.80
2018-04-25T06:25:00.254Z,95.10
2018-04-25T06:27:27.732Z,95.70
2018-04-25T06:29:55.203Z,95.60
2018-04-25T06:32:22.681Z,95.30
2018-04-25T06:34:50.146Z,95.80
2018-04-25T06:37:18.362Z,96.10
2018-04-25T06:39:45.847Z,96.10
2018-04-25T06:42:13.312Z,96.80
2018-04-25T06:44:40.812Z,97.40
2018-04-25T06:47:08.211Z,98.20
2018-04-25T06:49:35.689Z,97.80
2018-04-25T06:52:03.138Z,98.10
2018-04-25T06:54:30.622Z,97.90
2018-04-25T06:56:58.071Z,98.10
2018-04-25T06:59:26.314Z,98.20
2018-04-25T07:01:53.778Z,98.10
2018-04-25T07:04:21.254Z,98.50
2018-04-25T07:06:49.463Z,98.70
2018-04-25T07:09:16.939Z,98.60
2018-04-25T07:11:44.390Z,98.90
2018-04-25T07:14:11.958Z,98.80
2018-04-25T07:16:39.315Z,98.70
2018-04-25T07:19:06.764Z,98.90
2018-04-25T07:21:34.238Z,98.90
2018-04-25T07:24:01.710Z,98.70
2018-04-25T07:26:29.186Z,98.80
2018-04-25T07:28:57.426Z,98.10
2018-04-25T07:31:24.883Z,98.10
2018-04-25T07:33:52.346Z,98.20
2018-04-25T07:36:19.914Z,98.30
2018-04-25T07:38:48.161Z,98.10
2018-04-25T07:41:15.608Z,98.10
2018-04-25T07:43:43.141Z,97.50
2018-04-25T07:46:10.587Z,97.60
2018-04-25T07:48:38.094Z,97.10
2018-04-25T07:51:06.328Z,96.20
2018-04-25T07:53:33.850Z,96.20
2018-04-25T14:48:19.765Z,60.40
